Adirondack Regional Airport Saranac Lake US
ICAO: KSLK
IATA: SLK
Category: Medium
Scheduled Services: Yes

Elevation: 1663 ft
TransAlt. 18000 ft.

Airport Communications:
ASOS:124.175
BOSTON CNTR:120.35
BURLINGTON RDO:109.2
CTAF/UNICOM:123

KSLK Zoom In..

Runways:

(A) RW 05 length 6573 ft width 150 ft
---- / hdg 49

(B) RW 09 length 3998 ft width 100 ft
---- / hdg 93

(C) RW 23 length 6573 ft width 150 ft
ILS 108.90 / hdg 229

(D) RW 27 length 3998 ft width 100 ft
---- / hdg 273

Location; KSLK
Day. 26 / Time. 10.51 Zulu
* Altimeter: 30.18
* Temperature: 13° c. 55.4°f.
* Wind from: 000° Speed 00 kn.
Dewpoint: 11° c.
Visibility: 10 Statute Miles.
Clouds: Clear (automated report).

KSLK 261051Z AUTO 00000KT 10SM CLR 13/11 A3018 RMK AO2 SLP215 T01280111


Wind - Calm.

 
 
jpsmedia worldairports.se 2020   terms of use